Time;durP1;ratioP1;P1;durP2;ratioP2;P2;SDS_P1;SDS_P2;PMS_P1;PMS_P2;Temp;Humidity;BMP_temperature;BMP_pressure;BME280_temperature;BME280_humidity;BME280_pressure;Samples;Min_cycle;Max_cycle;Signal;HPM_P1;HPM_P2
2022/10/21 00:00:26;;;;;;;603.70;292.83;;;;;;;;;;5000734;28;20222;-71
2022/10/21 00:02:52;;;;;;;524.03;244.67;;;;;;;;;;4993115;28;20188;-71
2022/10/21 00:05:18;;;;;;;567.67;281.50;;;;;;;;;;5001426;28;20264;-71
2022/10/21 00:07:44;;;;;;;453.23;213.03;;;;;;;;;;4992424;28;20220;-71
2022/10/21 00:10:10;;;;;;;367.03;165.90;;;;;;;;;;4995872;28;20213;-71
2022/10/21 00:12:37;;;;;;;330.90;151.10;;;;;;;;;;4981529;28;20217;-71
2022/10/21 00:15:04;;;;;;;462.83;224.13;;;;;;;;;;4985964;28;20189;-72
2022/10/21 00:17:30;;;;;;;645.27;311.60;;;;;;;;;;4988697;28;20251;-72
2022/10/21 00:19:56;;;;;;;440.80;202.10;;;;;;;;;;4990480;28;20245;-71
2022/10/21 00:22:22;;;;;;;620.87;299.40;;;;;;;;;;4989246;28;20235;-71
2022/10/21 00:24:48;;;;;;;392.97;181.53;;;;;;;;;;4993093;28;20304;-71
2022/10/21 00:27:14;;;;;;;476.53;232.50;;;;;;;;;;4987969;28;22170;-72
2022/10/21 00:29:40;;;;;;;455.73;206.33;;;;;;;;;;4996454;28;20197;-71
2022/10/21 00:32:06;;;;;;;453.60;211.03;;;;;;;;;;4987343;28;21393;-72
2022/10/21 00:34:32;;;;;;;483.33;228.43;;;;;;;;;;5007710;28;20328;-72
2022/10/21 00:36:58;;;;;;;526.07;254.00;;;;;;;;;;4980187;28;20212;-72
2022/10/21 00:39:24;;;;;;;613.50;308.20;;;;;;;;;;4991746;28;20300;-71
2022/10/21 00:41:50;;;;;;;447.03;211.37;;;;;;;;;;4987533;28;20295;-71
2022/10/21 00:44:16;;;;;;;564.70;276.90;;;;;;;;;;4991577;28;20181;-71
2022/10/21 00:46:47;;;;;;;560.60;275.17;;;;;;;;;;4988288;28;20217;-71
2022/10/21 00:49:26;;;;;;;468.00;227.80;;;;;;;;;;4986205;28;20220;-71
2022/10/21 00:51:55;;;;;;;289.50;131.97;;;;;;;;;;4989205;28;20374;-71
2022/10/21 00:54:22;;;;;;;503.40;231.43;;;;;;;;;;4999274;28;20216;-71
2022/10/21 00:56:49;;;;;;;654.10;317.30;;;;;;;;;;5006935;28;20212;-71
2022/10/21 00:59:15;;;;;;;443.20;208.00;;;;;;;;;;4986897;28;20188;-70
2022/10/21 01:01:41;;;;;;;635.37;306.40;;;;;;;;;;4984528;28;20224;-70
2022/10/21 01:04:07;;;;;;;388.93;176.43;;;;;;;;;;4984785;28;20267;-70
2022/10/21 01:06:34;;;;;;;388.73;179.00;;;;;;;;;;4983157;28;20213;-70
2022/10/21 01:09:00;;;;;;;330.80;148.57;;;;;;;;;;4988868;28;20234;-70
2022/10/21 01:11:27;;;;;;;449.40;208.27;;;;;;;;;;4986603;28;20181;-71
2022/10/21 01:14:07;;;;;;;632.20;306.07;;;;;;;;;;4985521;28;20705;-71
2022/10/21 01:16:37;;;;;;;499.53;239.53;;;;;;;;;;4983563;28;20562;-71
2022/10/21 01:19:06;;;;;;;547.30;258.37;;;;;;;;;;4986139;28;20224;-71
2022/10/21 01:21:36;;;;;;;542.13;255.57;;;;;;;;;;4986663;28;20221;-71
2022/10/21 01:24:14;;;;;;;607.90;306.80;;;;;;;;;;4987070;28;20485;-71
2022/10/21 01:26:40;;;;;;;492.87;241.80;;;;;;;;;;4991284;28;20212;-72
2022/10/21 01:29:09;;;;;;;325.33;149.20;;;;;;;;;;4979517;28;20217;-71
2022/10/21 01:31:55;;;;;;;473.97;227.80;;;;;;;;;;4987737;28;20224;-71
2022/10/21 01:34:27;;;;;;;638.37;320.50;;;;;;;;;;4986562;28;20221;-71
2022/10/21 01:36:53;;;;;;;505.73;247.67;;;;;;;;;;4985855;28;20484;-71
2022/10/21 01:39:28;;;;;;;624.13;307.73;;;;;;;;;;4983024;28;20638;-71
2022/10/21 01:41:57;;;;;;;372.67;172.57;;;;;;;;;;4981449;28;20188;-71
2022/10/21 01:44:26;;;;;;;478.07;223.77;;;;;;;;;;4987844;28;20253;-71
2022/10/21 01:46:57;;;;;;;477.53;225.63;;;;;;;;;;4986559;28;20231;-71
2022/10/21 01:49:27;;;;;;;481.00;226.93;;;;;;;;;;4989447;28;20271;-71
2022/10/21 01:51:54;;;;;;;475.00;221.07;;;;;;;;;;4982006;28;20237;-71
2022/10/21 01:54:25;;;;;;;626.57;306.63;;;;;;;;;;4998567;28;20678;-71
2022/10/21 01:56:52;;;;;;;428.93;201.50;;;;;;;;;;4989368;28;20308;-71
2022/10/21 01:59:19;;;;;;;531.60;263.07;;;;;;;;;;4983179;28;20269;-71
2022/10/21 02:01:46;;;;;;;500.23;242.03;;;;;;;;;;4999191;28;20226;-71
2022/10/21 02:04:13;;;;;;;449.47;216.73;;;;;;;;;;4985474;28;20719;-71
2022/10/21 02:06:39;;;;;;;319.53;150.77;;;;;;;;;;4985645;28;20221;-71
2022/10/21 02:09:05;;;;;;;485.57;232.87;;;;;;;;;;4973256;28;20254;-71
2022/10/21 02:11:36;;;;;;;566.90;269.37;;;;;;;;;;4987885;28;20204;-73
2022/10/21 02:14:03;;;;;;;479.27;234.03;;;;;;;;;;4987942;28;20209;-72
2022/10/21 02:16:33;;;;;;;602.90;291.93;;;;;;;;;;4980968;28;20227;-72
2022/10/21 02:19:00;;;;;;;426.67;199.90;;;;;;;;;;4986638;28;20209;-72
2022/10/21 02:21:34;;;;;;;396.83;187.07;;;;;;;;;;4987798;28;20641;-71
2022/10/21 02:24:19;;;;;;;431.20;212.70;;;;;;;;;;4992125;28;20978;-72
2022/10/21 02:26:49;;;;;;;477.07;234.57;;;;;;;;;;4990471;28;20279;-73
2022/10/21 02:29:18;;;;;;;477.93;229.20;;;;;;;;;;4991264;28;20373;-74
2022/10/21 02:31:51;;;;;;;526.27;251.97;;;;;;;;;;4976454;28;20335;-72
2022/10/21 02:34:29;;;;;;;536.33;266.40;;;;;;;;;;5000887;28;20212;-73
2022/10/21 02:37:12;;;;;;;517.50;253.60;;;;;;;;;;5007111;28;20352;-72
2022/10/21 02:39:51;;;;;;;391.50;189.13;;;;;;;;;;5015266;28;20281;-73
2022/10/21 02:42:25;;;;;;;396.33;188.97;;;;;;;;;;5016110;28;20332;-71
2022/10/21 02:44:52;;;;;;;401.40;195.83;;;;;;;;;;5030768;28;20282;-71
2022/10/21 02:47:20;;;;;;;516.37;249.40;;;;;;;;;;5023767;28;20209;-73
2022/10/21 02:49:52;;;;;;;547.23;267.20;;;;;;;;;;5008038;28;20962;-73
2022/10/21 02:52:27;;;;;;;503.73;241.90;;;;;;;;;;4990946;28;20961;-72
2022/10/21 02:54:52;;;;;;;512.17;244.33;;;;;;;;;;4990995;28;20711;-73
2022/10/21 02:57:18;;;;;;;480.47;227.67;;;;;;;;;;4991167;28;20224;-74
2022/10/21 02:59:44;;;;;;;401.50;188.27;;;;;;;;;;4990264;28;20181;-72
2022/10/21 03:02:11;;;;;;;390.20;182.37;;;;;;;;;;4993339;28;20207;-72
2022/10/21 03:04:39;;;;;;;521.00;247.27;;;;;;;;;;4983793;28;20213;-72
2022/10/21 03:07:08;;;;;;;556.13;256.67;;;;;;;;;;4987172;28;20212;-72
2022/10/21 03:09:40;;;;;;;516.80;247.40;;;;;;;;;;4989035;28;20690;-71
2022/10/21 03:12:06;;;;;;;496.17;240.93;;;;;;;;;;4998561;28;20255;-72
2022/10/21 03:14:32;;;;;;;507.83;236.27;;;;;;;;;;4996421;28;20654;-73
2022/10/21 03:17:01;;;;;;;531.77;259.60;;;;;;;;;;5004469;28;20806;-72
2022/10/21 03:19:27;;;;;;;412.87;203.00;;;;;;;;;;4990537;28;20216;-73
2022/10/21 03:21:53;;;;;;;306.47;144.10;;;;;;;;;;5001193;28;20264;-71
2022/10/21 03:24:22;;;;;;;485.07;236.83;;;;;;;;;;4995863;28;20219;-72
2022/10/21 03:26:51;;;;;;;512.60;249.73;;;;;;;;;;5007578;28;20333;-73
2022/10/21 03:29:17;;;;;;;542.03;265.17;;;;;;;;;;4978398;28;20823;-72
2022/10/21 03:31:46;;;;;;;499.63;249.83;;;;;;;;;;4994859;28;20581;-74
2022/10/21 03:34:12;;;;;;;481.77;227.63;;;;;;;;;;4989252;28;20527;-72
2022/10/21 03:36:38;;;;;;;354.53;165.40;;;;;;;;;;4995917;28;20216;-73
2022/10/21 03:39:04;;;;;;;453.87;215.27;;;;;;;;;;4994646;28;20665;-72
2022/10/21 03:41:30;;;;;;;380.17;177.83;;;;;;;;;;5002976;28;20655;-72
2022/10/21 03:43:59;;;;;;;492.17;238.10;;;;;;;;;;4988507;28;20279;-73
2022/10/21 03:46:28;;;;;;;476.60;231.70;;;;;;;;;;4984033;28;20225;-73
2022/10/21 03:48:54;;;;;;;601.27;296.00;;;;;;;;;;4993568;28;20283;-72
2022/10/21 03:51:20;;;;;;;451.83;222.57;;;;;;;;;;4985660;28;20219;-73
2022/10/21 03:53:49;;;;;;;437.07;213.30;;;;;;;;;;5002159;28;20558;-72
2022/10/21 03:56:15;;;;;;;455.40;225.53;;;;;;;;;;4996633;28;20283;-73
2022/10/21 03:58:41;;;;;;;374.73;182.90;;;;;;;;;;4995133;28;20320;-72
2022/10/21 04:01:13;;;;;;;554.43;275.43;;;;;;;;;;4987241;28;20371;-72
2022/10/21 04:03:39;;;;;;;495.57;246.67;;;;;;;;;;4990404;28;20700;-71
2022/10/21 04:06:05;;;;;;;548.87;269.77;;;;;;;;;;5005875;28;20256;-73
2022/10/21 04:08:31;;;;;;;463.37;225.43;;;;;;;;;;4996630;28;20220;-72
2022/10/21 04:11:03;;;;;;;461.63;233.00;;;;;;;;;;4993501;28;20680;-73
2022/10/21 04:13:30;;;;;;;497.60;249.13;;;;;;;;;;4992280;28;20723;-72
2022/10/21 04:16:06;;;;;;;483.87;238.20;;;;;;;;;;4997470;28;20304;-73
2022/10/21 04:18:33;;;;;;;327.83;155.37;;;;;;;;;;4993691;28;20756;-71
2022/10/21 04:20:59;;;;;;;515.43;253.63;;;;;;;;;;4982212;28;20180;-73
2022/10/21 04:23:25;;;;;;;580.20;291.33;;;;;;;;;;4992741;28;20178;-72
2022/10/21 04:25:51;;;;;;;400.63;187.13;;;;;;;;;;4992476;28;20236;-72
2022/10/21 04:28:17;;;;;;;507.97;248.20;;;;;;;;;;4994601;28;20607;-72
2022/10/21 04:30:43;;;;;;;323.17;162.20;;;;;;;;;;4988651;28;20780;-71
2022/10/21 04:33:09;;;;;;;226.80;114.33;;;;;;;;;;4993121;28;20604;-72
2022/10/21 04:35:35;;;;;;;252.73;127.77;;;;;;;;;;5003622;28;20699;-71
2022/10/21 04:38:01;;;;;;;400.50;195.07;;;;;;;;;;4997346;28;20209;-72
2022/10/21 04:40:27;;;;;;;496.37;238.87;;;;;;;;;;4983239;28;20220;-73
2022/10/21 04:42:56;;;;;;;456.23;218.53;;;;;;;;;;4990948;28;20227;-72
2022/10/21 04:45:25;;;;;;;483.77;239.30;;;;;;;;;;4993518;28;20229;-72
2022/10/21 04:47:51;;;;;;;382.30;183.77;;;;;;;;;;4990624;28;20197;-72
2022/10/21 04:50:26;;;;;;;449.47;225.20;;;;;;;;;;4994403;28;20252;-74
2022/10/21 04:52:52;;;;;;;477.00;225.95;;;;;;;;;;4987696;28;20299;-73
2022/10/21 04:55:18;;;;;;;326.73;160.43;;;;;;;;;;4993463;28;20325;-71
2022/10/21 04:57:50;;;;;;;393.37;197.43;;;;;;;;;;4993833;28;20240;-73
2022/10/21 05:00:19;;;;;;;406.77;203.87;;;;;;;;;;4995639;28;20703;-71
2022/10/21 05:02:45;;;;;;;442.20;217.93;;;;;;;;;;4994098;28;20264;-73
2022/10/21 05:05:11;;;;;;;390.20;198.53;;;;;;;;;;5006579;28;20347;-73
2022/10/21 05:07:37;;;;;;;453.83;227.17;;;;;;;;;;4998780;28;20712;-73
2022/10/21 05:10:03;;;;;;;370.80;187.00;;;;;;;;;;4990848;28;20775;-72
2022/10/21 05:12:29;;;;;;;354.90;181.27;;;;;;;;;;4993350;28;20278;-72
2022/10/21 05:14:55;;;;;;;311.37;158.53;;;;;;;;;;4997253;28;20193;-71
2022/10/21 05:17:21;;;;;;;474.93;235.00;;;;;;;;;;4993365;28;20209;-72
2022/10/21 05:19:47;;;;;;;416.60;204.90;;;;;;;;;;4990550;28;20217;-72
2022/10/21 05:22:18;;;;;;;434.40;210.60;;;;;;;;;;4998073;28;20205;-72
2022/10/21 05:24:50;;;;;;;416.00;200.65;;;;;;;;;;4994579;28;20262;-72
2022/10/21 05:27:19;;;;;;;274.27;134.37;;;;;;;;;;4985116;28;20889;-77
2022/10/21 05:29:45;;;;;;;237.07;115.93;;;;;;;;;;4992880;28;20216;-76
2022/10/21 05:32:11;;;;;;;247.33;121.37;;;;;;;;;;4992609;28;20526;-74
2022/10/21 05:34:40;;;;;;;441.03;220.10;;;;;;;;;;4993386;28;20257;-75
2022/10/21 05:37:14;;;;;;;392.60;190.70;;;;;;;;;;5008987;28;20234;-75
2022/10/21 05:39:41;;;;;;;393.17;189.77;;;;;;;;;;5003600;28;20231;-73
2022/10/21 05:42:18;;;;;;;465.10;230.40;;;;;;;;;;5003418;28;20581;-72
2022/10/21 05:44:44;;;;;;;437.97;217.57;;;;;;;;;;5006408;28;20309;-74
2022/10/21 05:47:13;;;;;;;482.60;234.73;;;;;;;;;;4994682;28;20229;-75
2022/10/21 05:49:39;;;;;;;455.67;223.93;;;;;;;;;;5006592;28;20408;-74
2022/10/21 05:52:05;;;;;;;324.63;162.60;;;;;;;;;;5017128;28;20299;-75
2022/10/21 05:54:31;;;;;;;407.77;206.80;;;;;;;;;;5026140;28;20208;-76
2022/10/21 05:56:57;;;;;;;399.00;204.97;;;;;;;;;;5000097;28;20259;-77
2022/10/21 05:59:26;;;;;;;601.50;316.83;;;;;;;;;;5011899;28;20183;-78
2022/10/21 06:01:52;;;;;;;409.40;203.13;;;;;;;;;;5009959;28;20247;-68
2022/10/21 06:04:18;;;;;;;446.77;227.87;;;;;;;;;;5010345;28;20971;-69
2022/10/21 06:06:44;;;;;;;332.43;160.03;;;;;;;;;;5012331;28;20220;-68
2022/10/21 06:09:10;;;;;;;376.23;180.40;;;;;;;;;;5013798;28;20246;-68
2022/10/21 06:11:36;;;;;;;408.57;203.60;;;;;;;;;;5014752;28;20225;-70
2022/10/21 06:14:02;;;;;;;470.57;223.93;;;;;;;;;;5015434;28;20216;-69
2022/10/21 06:16:34;;;;;;;651.90;352.20;;;;;;;;;;4992163;28;20549;-72
2022/10/21 06:19:01;;;;;;;360.13;174.00;;;;;;;;;;4988758;28;20212;-71
2022/10/21 06:21:29;;;;;;;535.90;277.83;;;;;;;;;;4998590;28;20268;-73
2022/10/21 06:23:55;;;;;;;462.10;224.73;;;;;;;;;;5001466;28;20183;-73
2022/10/21 06:26:30;;;;;;;487.80;237.63;;;;;;;;;;5004931;28;20209;-72
2022/10/21 06:28:57;;;;;;;333.30;167.90;;;;;;;;;;5005733;28;20223;-71
2022/10/21 06:31:22;;;;;;;461.23;231.07;;;;;;;;;;5013618;28;20214;-70
2022/10/21 06:33:49;;;;;;;630.17;321.97;;;;;;;;;;5010107;28;20223;-71
2022/10/21 06:36:15;;;;;;;299.87;150.50;;;;;;;;;;5011556;28;20221;-70
2022/10/21 06:38:47;;;;;;;593.50;296.83;;;;;;;;;;5021437;28;20191;-73
2022/10/21 06:41:14;;;;;;;376.83;183.73;;;;;;;;;;4994865;28;20253;-69
2022/10/21 06:43:40;;;;;;;451.20;222.60;;;;;;;;;;5007788;28;20623;-68
2022/10/21 06:46:08;;;;;;;446.37;223.33;;;;;;;;;;5016753;28;20731;-68
2022/10/21 06:48:37;;;;;;;469.07;229.60;;;;;;;;;;5015122;28;20215;-73
2022/10/21 06:51:05;;;;;;;466.63;234.57;;;;;;;;;;5009634;28;20185;-72
2022/10/21 06:53:32;;;;;;;426.67;210.17;;;;;;;;;;5010963;28;20179;-74
2022/10/21 06:56:06;;;;;;;557.87;289.63;;;;;;;;;;5022364;28;20759;-73
2022/10/21 06:58:36;;;;;;;457.83;242.27;;;;;;;;;;5008163;28;20253;-73
2022/10/21 07:01:15;;;;;;;478.60;249.10;;;;;;;;;;5005977;28;20291;-74
2022/10/21 07:03:44;;;;;;;342.40;169.80;;;;;;;;;;5016439;28;20592;-73
2022/10/21 07:06:10;;;;;;;242.57;120.17;;;;;;;;;;5030808;28;20223;-72
2022/10/21 07:08:36;;;;;;;423.50;212.80;;;;;;;;;;5021585;28;20200;-72
2022/10/21 07:11:06;;;;;;;552.43;273.93;;;;;;;;;;5023108;28;20216;-72
2022/10/21 07:13:33;;;;;;;415.60;208.67;;;;;;;;;;5004830;28;20223;-73
2022/10/21 07:15:59;;;;;;;577.93;291.57;;;;;;;;;;5017826;28;20216;-75
2022/10/21 07:18:25;;;;;;;388.53;184.67;;;;;;;;;;5017527;28;20577;-72
2022/10/21 07:20:51;;;;;;;439.23;212.17;;;;;;;;;;5011212;28;20821;-74
2022/10/21 07:23:17;;;;;;;481.43;235.40;;;;;;;;;;4997804;28;20180;-74
2022/10/21 07:25:43;;;;;;;483.37;248.97;;;;;;;;;;4992054;28;20737;-73
2022/10/21 07:28:09;;;;;;;401.77;202.63;;;;;;;;;;4992858;28;20217;-74
2022/10/21 07:30:42;;;;;;;471.63;230.30;;;;;;;;;;4976709;28;20271;-76
2022/10/21 07:33:11;;;;;;;557.33;290.60;;;;;;;;;;4983301;28;20287;-74
2022/10/21 07:35:37;;;;;;;350.67;176.43;;;;;;;;;;4994904;28;20197;-74
2022/10/21 07:38:12;;;;;;;502.43;259.73;;;;;;;;;;4990985;28;20217;-74
2022/10/21 07:40:39;;;;;;;440.37;220.20;;;;;;;;;;5013218;28;20791;-71
2022/10/21 07:43:05;;;;;;;335.13;166.90;;;;;;;;;;4998807;28;20201;-71
2022/10/21 07:45:31;;;;;;;393.47;197.00;;;;;;;;;;4996310;28;20217;-72
2022/10/21 07:47:57;;;;;;;453.90;234.90;;;;;;;;;;4993441;28;20203;-72
2022/10/21 07:50:26;;;;;;;505.37;253.77;;;;;;;;;;5009137;28;20182;-71
2022/10/21 07:52:54;;;;;;;290.87;148.37;;;;;;;;;;4999969;28;20268;-72
2022/10/21 07:55:21;;;;;;;467.03;241.77;;;;;;;;;;5002298;28;20215;-74
2022/10/21 07:57:47;;;;;;;341.83;170.97;;;;;;;;;;5000906;28;20236;-71
2022/10/21 08:00:13;;;;;;;322.87;163.37;;;;;;;;;;5005051;28;20213;-73
2022/10/21 08:02:39;;;;;;;228.93;120.00;;;;;;;;;;5005358;28;20711;-72
2022/10/21 08:05:05;;;;;;;490.27;247.07;;;;;;;;;;4999239;28;20712;-73
2022/10/21 08:07:34;;;;;;;440.30;237.10;;;;;;;;;;5000927;28;20213;-72
2022/10/21 08:10:00;;;;;;;380.27;197.03;;;;;;;;;;5000316;28;20310;-72
2022/10/21 08:12:26;;;;;;;494.83;265.13;;;;;;;;;;4999359;28;20216;-70
2022/10/21 08:14:52;;;;;;;331.13;177.30;;;;;;;;;;5001819;28;20889;-71
2022/10/21 08:17:18;;;;;;;366.60;190.67;;;;;;;;;;5003677;28;20204;-71
2022/10/21 08:19:45;;;;;;;424.80;212.80;;;;;;;;;;4999537;28;20213;-72
2022/10/21 08:22:12;;;;;;;361.90;192.30;;;;;;;;;;5003248;28;20216;-71
2022/10/21 08:24:38;;;;;;;355.40;183.23;;;;;;;;;;5002222;28;20212;-70
2022/10/21 08:27:04;;;;;;;483.07;267.30;;;;;;;;;;4996628;28;20256;-71
2022/10/21 08:29:30;;;;;;;516.53;261.73;;;;;;;;;;4999025;28;20573;-71
2022/10/21 08:31:56;;;;;;;432.23;227.20;;;;;;;;;;4999645;28;20215;-70
2022/10/21 08:34:22;;;;;;;474.07;256.00;;;;;;;;;;4995701;28;21675;-72
2022/10/21 08:36:48;;;;;;;503.33;260.90;;;;;;;;;;4999235;28;22026;-70
2022/10/21 08:39:14;;;;;;;293.33;165.37;;;;;;;;;;4999920;28;20330;-72
2022/10/21 08:41:53;;;;;;;387.47;208.53;;;;;;;;;;4996542;28;20290;-71
2022/10/21 08:44:28;;;;;;;374.43;200.77;;;;;;;;;;4999856;28;20893;-71
2022/10/21 08:46:58;;;;;;;570.07;304.83;;;;;;;;;;4995429;28;20719;-71
2022/10/21 08:49:28;;;;;;;383.57;210.57;;;;;;;;;;4994961;28;20221;-74
2022/10/21 08:52:03;;;;;;;484.63;263.67;;;;;;;;;;4987386;28;20260;-72
2022/10/21 08:54:41;;;;;;;308.67;166.60;;;;;;;;;;4993762;28;20216;-71
2022/10/21 08:57:09;;;;;;;380.70;215.93;;;;;;;;;;4990687;28;20281;-71
2022/10/21 08:59:35;;;;;;;410.93;223.57;;;;;;;;;;4992172;28;20185;-71
2022/10/21 09:02:16;;;;;;;339.10;184.53;;;;;;;;;;4992203;28;21066;-71
2022/10/21 09:05:00;;;;;;;457.33;243.97;;;;;;;;;;5000705;28;20231;-70
2022/10/21 09:07:36;;;;;;;586.17;317.97;;;;;;;;;;5005773;28;20236;-72
2022/10/21 09:10:08;;;;;;;336.47;186.07;;;;;;;;;;5016135;28;20266;-71
2022/10/21 09:12:43;;;;;;;486.83;262.03;;;;;;;;;;5012670;28;20184;-70
2022/10/21 09:15:47;;;;;;;302.03;170.97;;;;;;;;;;5007499;28;20191;-71
2022/10/21 09:18:25;;;;;;;308.97;171.63;;;;;;;;;;4956643;28;20206;-70
2022/10/21 09:20:54;;;;;;;436.40;238.30;;;;;;;;;;4951250;28;20213;-71
2022/10/21 09:23:35;;;;;;;520.37;284.70;;;;;;;;;;4987328;28;20638;-70
2022/10/21 09:26:03;;;;;;;565.90;315.30;;;;;;;;;;5019328;28;20235;-71
2022/10/21 09:28:30;;;;;;;274.33;160.10;;;;;;;;;;5014929;28;21699;-70
2022/10/21 09:31:03;;;;;;;399.17;226.37;;;;;;;;;;5012482;28;20432;-70
2022/10/21 09:33:30;;;;;;;360.40;207.17;;;;;;;;;;5009894;28;20716;-71
2022/10/21 09:35:59;;;;;;;342.40;201.07;;;;;;;;;;5009849;28;20201;-70
2022/10/21 09:38:28;;;;;;;347.37;200.70;;;;;;;;;;5009430;28;20221;-71
2022/10/21 09:41:00;;;;;;;268.90;155.90;;;;;;;;;;5012376;28;20212;-72
2022/10/21 09:43:26;;;;;;;588.40;323.77;;;;;;;;;;5004247;28;20196;-71
2022/10/21 09:45:53;;;;;;;314.10;181.93;;;;;;;;;;4989608;28;20223;-71
2022/10/21 09:48:18;;;;;;;613.93;327.83;;;;;;;;;;4999470;28;20181;-71
2022/10/21 09:50:49;;;;;;;330.23;189.83;;;;;;;;;;5007791;28;20220;-70
2022/10/21 09:53:16;;;;;;;335.77;188.20;;;;;;;;;;5013133;28;20714;-71
2022/10/21 09:55:43;;;;;;;299.93;170.60;;;;;;;;;;5029604;28;20217;-71
2022/10/21 09:58:22;;;;;;;384.83;220.73;;;;;;;;;;5016761;28;20339;-72
2022/10/21 10:00:49;;;;;;;459.10;253.23;;;;;;;;;;5015200;28;20227;-71
2022/10/21 10:03:33;;;;;;;455.77;243.10;;;;;;;;;;5016161;28;20194;-72
2022/10/21 10:05:59;;;;;;;303.50;166.87;;;;;;;;;;5013799;28;20216;-72
2022/10/21 10:08:31;;;;;;;429.25;237.25;;;;;;;;;;5006006;28;20220;-69
2022/10/21 10:11:13;;;;;;;431.37;232.97;;;;;;;;;;5001374;28;20247;-69
2022/10/21 10:13:49;;;;;;;455.53;237.30;;;;;;;;;;4995872;28;20281;-70
2022/10/21 10:16:29;;;;;;;235.37;127.60;;;;;;;;;;5012953;28;20308;-69
2022/10/21 10:19:19;;;;;;;243.80;134.33;;;;;;;;;;5011619;28;20627;-70
2022/10/21 10:21:47;;;;;;;264.07;148.37;;;;;;;;;;5005890;28;20274;-70
2022/10/21 10:24:17;;;;;;;274.37;156.43;;;;;;;;;;5016476;28;20481;-70
2022/10/21 10:26:43;;;;;;;263.73;146.03;;;;;;;;;;5016899;28;20213;-69
2022/10/21 10:29:09;;;;;;;237.90;133.60;;;;;;;;;;5007313;28;20225;-70
2022/10/21 10:31:36;;;;;;;240.90;136.87;;;;;;;;;;5000911;28;20412;-70
2022/10/21 10:34:04;;;;;;;270.30;152.00;;;;;;;;;;5001628;28;20643;-70
2022/10/21 10:36:37;;;;;;;228.93;129.63;;;;;;;;;;5008603;28;20696;-70
2022/10/21 10:39:06;;;;;;;250.80;138.70;;;;;;;;;;5019065;28;20181;-70
2022/10/21 10:41:35;;;;;;;254.70;140.67;;;;;;;;;;5021075;28;20241;-69
2022/10/21 10:44:07;;;;;;;282.33;154.67;;;;;;;;;;5006178;28;20208;-70
2022/10/21 10:46:34;;;;;;;643.63;358.77;;;;;;;;;;4995334;28;20712;-71
2022/10/21 10:49:05;;;;;;;470.67;240.70;;;;;;;;;;4982944;28;20325;-76
2022/10/21 10:51:33;;;;;;;638.23;331.63;;;;;;;;;;4995804;28;20799;-74
2022/10/21 10:54:13;;;;;;;610.63;331.50;;;;;;;;;;4980456;28;20177;-75
2022/10/21 10:56:42;;;;;;;325.83;166.23;;;;;;;;;;4975468;28;20224;-73
2022/10/21 10:59:08;;;;;;;534.17;279.77;;;;;;;;;;4967276;28;20223;-74
2022/10/21 11:01:39;;;;;;;656.30;347.50;;;;;;;;;;4968308;28;20260;-75
2022/10/21 11:04:21;;;;;;;551.67;292.37;;;;;;;;;;4970636;28;20205;-74
2022/10/21 11:06:53;;;;;;;419.17;219.30;;;;;;;;;;4979734;28;20685;-71
2022/10/21 11:09:19;;;;;;;626.80;344.73;;;;;;;;;;5007276;28;20252;-71
2022/10/21 11:11:46;;;;;;;550.77;299.30;;;;;;;;;;5010030;28;20256;-73
2022/10/21 11:14:16;;;;;;;393.70;206.90;;;;;;;;;;5016841;28;20231;-71
2022/10/21 11:16:49;;;;;;;317.50;164.97;;;;;;;;;;5009008;28;20215;-70
2022/10/21 11:19:22;;;;;;;564.67;304.30;;;;;;;;;;5009872;28;20213;-72
2022/10/21 11:21:55;;;;;;;513.40;281.57;;;;;;;;;;5005862;28;20217;-71
2022/10/21 11:24:21;;;;;;;552.80;309.47;;;;;;;;;;4991124;28;20191;-71
2022/10/21 11:27:05;;;;;;;495.23;266.40;;;;;;;;;;4990282;28;20209;-70
2022/10/21 11:29:35;;;;;;;392.77;202.50;;;;;;;;;;4988993;28;20753;-71
2022/10/21 11:32:20;;;;;;;412.37;205.93;;;;;;;;;;4993411;28;20263;-71
2022/10/21 11:34:50;;;;;;;547.53;292.87;;;;;;;;;;4996472;28;20300;-71
2022/10/21 11:37:35;;;;;;;371.90;187.53;;;;;;;;;;4993308;28;20292;-71
2022/10/21 11:40:04;;;;;;;537.90;275.43;;;;;;;;;;4990818;28;20377;-71
2022/10/21 11:42:32;;;;;;;643.50;350.43;;;;;;;;;;4989245;28;20261;-71
2022/10/21 11:45:01;;;;;;;650.97;346.20;;;;;;;;;;4994576;28;20173;-70
2022/10/21 11:47:27;;;;;;;488.27;245.80;;;;;;;;;;4994836;28;20224;-70
2022/10/21 11:49:53;;;;;;;412.53;201.03;;;;;;;;;;4998524;28;20225;-71
2022/10/21 11:52:21;;;;;;;421.50;210.10;;;;;;;;;;5004990;28;20228;-71
2022/10/21 11:54:53;;;;;;;495.17;255.30;;;;;;;;;;5000322;28;20259;-71
2022/10/21 11:57:25;;;;;;;511.97;267.47;;;;;;;;;;4989123;28;20304;-71
2022/10/21 12:00:04;;;;;;;573.83;298.97;;;;;;;;;;4995710;28;20224;-71
2022/10/21 12:02:40;;;;;;;528.47;278.43;;;;;;;;;;5000647;28;20213;-71
2022/10/21 12:05:26;;;;;;;464.53;238.13;;;;;;;;;;5001880;28;20208;-70
2022/10/21 12:08:13;;;;;;;638.10;338.93;;;;;;;;;;5002453;28;20233;-71
2022/10/21 12:10:41;;;;;;;410.07;206.83;;;;;;;;;;5001634;28;20209;-71
2022/10/21 12:13:19;;;;;;;390.47;198.83;;;;;;;;;;5001137;28;20248;-71
2022/10/21 12:15:47;;;;;;;541.93;291.37;;;;;;;;;;4994255;28;20237;-71
2022/10/21 12:18:18;;;;;;;596.90;325.60;;;;;;;;;;4995513;28;20197;-71
2022/10/21 12:20:45;;;;;;;501.90;267.50;;;;;;;;;;5000278;28;20263;-71
2022/10/21 12:23:15;;;;;;;495.97;257.00;;;;;;;;;;5014030;28;20241;-71
2022/10/21 12:25:49;;;;;;;329.05;169.13;;;;;;;;;;5018597;28;20223;-71
2022/10/21 12:28:18;;;;;;;419.73;216.03;;;;;;;;;;5015755;28;20215;-71
2022/10/21 12:30:52;;;;;;;631.13;340.13;;;;;;;;;;5004161;28;20294;-71
2022/10/21 12:33:28;;;;;;;518.47;278.43;;;;;;;;;;4998575;28;20268;-72
2022/10/21 12:35:56;;;;;;;496.73;270.83;;;;;;;;;;5001559;28;20220;-71
2022/10/21 12:38:22;;;;;;;486.83;274.17;;;;;;;;;;5010956;28;20215;-71
2022/10/21 12:40:49;;;;;;;467.02;251.27;;;;;;;;;;5017026;28;20240;-72
2022/10/21 12:43:21;;;;;;;587.80;324.80;;;;;;;;;;5009549;28;20572;-71
2022/10/21 12:46:00;;;;;;;537.55;295.83;;;;;;;;;;5004616;28;20227;-70
2022/10/21 12:48:30;;;;;;;424.47;230.97;;;;;;;;;;5012220;28;20264;-71
2022/10/21 12:50:58;;;;;;;373.20;199.70;;;;;;;;;;5002385;28;20235;-70
2022/10/21 12:53:24;;;;;;;452.90;248.50;;;;;;;;;;5004211;28;20212;-71
2022/10/21 12:55:52;;;;;;;538.80;295.10;;;;;;;;;;5012004;28;20651;-71
2022/10/21 12:58:36;;;;;;;450.93;236.53;;;;;;;;;;4999300;28;20205;-72
2022/10/21 13:01:03;;;;;;;451.70;243.13;;;;;;;;;;4993089;28;20304;-71
2022/10/21 13:03:44;;;;;;;397.83;222.48;;;;;;;;;;4993686;28;20725;-72
2022/10/21 13:06:10;;;;;;;354.47;197.90;;;;;;;;;;4996280;28;20204;-71
2022/10/21 13:08:37;;;;;;;484.97;263.03;;;;;;;;;;4998188;28;20231;-70
2022/10/21 13:13:39;;;;;;;406.40;224.20;;;;;;;;;;5013438;28;20213;-73
2022/10/21 13:16:17;;;;;;;499.90;270.27;;;;;;;;;;5012877;28;20311;-72
2022/10/21 13:19:02;;;;;;;425.93;229.97;;;;;;;;;;4996786;28;20218;-72
2022/10/21 13:21:37;;;;;;;446.43;245.27;;;;;;;;;;5005450;28;20263;-71
2022/10/21 13:24:12;;;;;;;270.47;153.90;;;;;;;;;;5019897;28;20211;-72
2022/10/21 13:26:40;;;;;;;361.30;195.57;;;;;;;;;;5010536;28;20219;-71
2022/10/21 13:29:26;;;;;;;467.03;256.20;;;;;;;;;;5013459;28;20575;-71
2022/10/21 13:32:10;;;;;;;481.10;257.33;;;;;;;;;;5005367;28;20270;-71
2022/10/21 13:34:37;;;;;;;593.20;318.27;;;;;;;;;;4998260;28;20232;-71
2022/10/21 13:37:11;;;;;;;339.20;183.87;;;;;;;;;;4992588;28;20294;-70
2022/10/21 13:39:38;;;;;;;551.00;300.70;;;;;;;;;;4987277;28;20643;-73
2022/10/21 13:42:06;;;;;;;527.67;288.03;;;;;;;;;;5005354;28;20566;-69
2022/10/21 13:44:34;;;;;;;431.53;229.60;;;;;;;;;;5000624;28;20267;-70
2022/10/21 13:47:17;;;;;;;454.03;247.97;;;;;;;;;;4987650;28;20228;-70
2022/10/21 13:49:48;;;;;;;549.63;300.90;;;;;;;;;;4997588;28;20235;-70
2022/10/21 13:52:15;;;;;;;424.13;234.57;;;;;;;;;;4998618;28;20247;-70
2022/10/21 13:54:41;;;;;;;513.33;284.83;;;;;;;;;;5006890;28;20302;-71
2022/10/21 13:57:07;;;;;;;502.63;268.43;;;;;;;;;;4985689;28;20824;-71
2022/10/21 13:59:33;;;;;;;350.00;186.53;;;;;;;;;;5013186;28;20208;-70
2022/10/21 14:02:04;;;;;;;300.07;166.27;;;;;;;;;;4996265;28;20301;-71
2022/10/21 14:04:30;;;;;;;417.43;216.30;;;;;;;;;;4987119;28;20557;-71
2022/10/21 14:07:02;;;;;;;555.37;299.17;;;;;;;;;;4999531;28;20303;-72